Time;durP1;ratioP1;P1;durP2;ratioP2;P2;SDS_P1;SDS_P2;PMS_P1;PMS_P2;Temp;Humidity;BMP_temperature;BMP_pressure;BME280_temperature;BME280_humidity;BME280_pressure;Samples;Min_cycle;Max_cycle;Signal;HPM_P1;HPM_P2
2023/06/27 00:00:12;;;;;;;2.90;1.52;;;18.50;79.20;;;;;;5049359;28;20029;-88
2023/06/27 00:02:38;;;;;;;1.20;1.08;;;18.50;79.60;;;;;;5032552;28;20029;-88
2023/06/27 00:05:05;;;;;;;2.33;1.55;;;18.50;78.90;;;;;;5033071;28;20037;-88
2023/06/27 00:07:31;;;;;;;3.53;1.42;;;18.40;80.50;;;;;;5048714;28;20039;-87
2023/06/27 00:09:59;;;;;;;4.80;1.30;;;18.30;81.80;;;;;;5051040;28;20048;-88
2023/06/27 00:12:25;;;;;;;3.05;1.50;;;18.30;81.30;;;;;;5032672;28;20116;-88
2023/06/27 00:14:51;;;;;;;2.38;1.05;;;18.20;81.20;;;;;;5049307;28;20055;-88
2023/06/27 00:17:17;;;;;;;1.95;1.20;;;18.20;82.70;;;;;;5032625;28;20466;-87
2023/06/27 00:19:46;;;;;;;1.20;1.10;;;18.10;82.00;;;;;;5058519;28;20028;-87
2023/06/27 00:22:12;;;;;;;6.70;1.30;;;18.10;82.90;;;;;;5050296;28;20025;-87
2023/06/27 00:24:39;;;;;;;3.92;1.33;;;18.10;83.00;;;;;;5032450;28;20146;-88
2023/06/27 00:27:06;;;;;;;2.45;1.30;;;18.00;82.60;;;;;;5035620;28;20100;-88
2023/06/27 00:29:33;;;;;;;1.48;1.20;;;18.00;83.00;;;;;;5033165;28;20033;-88
2023/06/27 00:31:59;;;;;;;3.30;1.25;;;17.90;82.90;;;;;;5049439;28;20747;-88
2023/06/27 00:34:44;;;;;;;2.65;1.38;;;17.80;84.30;;;;;;5059338;28;20076;-87
2023/06/27 00:37:09;;;;;;;4.93;1.27;;;17.80;83.90;;;;;;5032452;28;20052;-87
2023/06/27 00:39:36;;;;;;;2.67;1.05;;;17.80;85.10;;;;;;5033349;28;20031;-88
2023/06/27 00:42:02;;;;;;;2.00;1.17;;;17.70;84.70;;;;;;5047874;28;20410;-88
2023/06/27 00:44:29;;;;;;;2.00;1.15;;;17.70;83.20;;;;;;5028361;28;20063;-87
2023/06/27 00:46:55;;;;;;;1.52;1.15;;;17.60;84.70;;;;;;5032496;28;20112;-88
2023/06/27 00:49:21;;;;;;;2.72;1.48;;;17.50;84.90;;;;;;5031453;28;20055;-89
2023/06/27 00:51:48;;;;;;;4.82;1.20;;;17.50;83.90;;;;;;5053003;28;20039;-87
2023/06/27 00:54:17;;;;;;;3.13;1.33;;;17.40;84.60;;;;;;5035507;28;20058;-87
2023/06/27 00:56:44;;;;;;;3.45;1.23;;;17.40;85.10;;;;;;5041909;28;20025;-87
2023/06/27 00:59:11;;;;;;;2.25;1.13;;;17.30;84.40;;;;;;5037058;28;20025;-88
2023/06/27 01:01:38;;;;;;;3.15;1.38;;;17.30;84.40;;;;;;5041614;28;20028;-89
2023/06/27 01:04:04;;;;;;;2.25;1.30;;;17.20;85.40;;;;;;5034323;28;20025;-87
2023/06/27 01:06:42;;;;;;;1.63;1.20;;;17.20;85.70;;;;;;5037877;28;20029;-88
2023/06/27 01:09:15;;;;;;;3.65;1.33;;;17.10;86.80;;;;;;5052328;28;20043;-88
2023/06/27 01:11:57;;;;;;;1.70;1.23;;;17.00;86.50;;;;;;5052319;28;20086;-88
2023/06/27 01:14:25;;;;;;;4.05;1.23;;;17.00;87.30;;;;;;5049469;28;20029;-89
2023/06/27 01:16:52;;;;;;;1.88;1.23;;;16.90;86.50;;;;;;5036356;28;20021;-88
2023/06/27 01:19:21;;;;;;;5.03;1.45;;;16.90;87.20;;;;;;5036274;28;20049;-88
2023/06/27 01:21:52;;;;;;;1.70;1.17;;;16.80;87.10;;;;;;5042781;28;20024;-88
2023/06/27 01:24:18;;;;;;;4.70;1.38;;;16.80;88.20;;;;;;5031810;28;20029;-88
2023/06/27 01:26:43;;;;;;;1.52;1.05;;;16.70;87.90;;;;;;5035687;28;20048;-87
2023/06/27 01:29:11;;;;;;;1.75;1.13;;;16.70;88.20;;;;;;5035858;28;20067;-88
2023/06/27 01:31:43;;;;;;;1.80;1.23;;;16.60;87.70;;;;;;5035878;28;20062;-87
2023/06/27 01:34:25;;;;;;;2.72;1.20;;;16.60;88.70;;;;;;5041568;28;20058;-88
2023/06/27 01:36:58;;;;;;;3.13;1.60;;;16.50;88.90;;;;;;5051512;28;20025;-87
2023/06/27 01:39:31;;;;;;;2.42;1.30;;;16.40;89.20;;;;;;5033632;28;20025;-88
2023/06/27 01:42:07;;;;;;;2.78;1.20;;;16.40;89.20;;;;;;5035528;28;20025;-87
2023/06/27 01:44:33;;;;;;;2.95;1.27;;;16.30;90.00;;;;;;5036410;28;20036;-87
2023/06/27 01:46:59;;;;;;;4.38;1.40;;;16.20;89.50;;;;;;5054539;28;20041;-87
2023/06/27 01:49:26;;;;;;;1.77;1.20;;;16.20;90.50;;;;;;5039285;28;20047;-88
2023/06/27 01:51:55;;;;;;;3.03;1.20;;;16.20;90.30;;;;;;5055057;28;20047;-88
2023/06/27 01:54:21;;;;;;;3.40;1.40;;;16.10;90.30;;;;;;5034413;28;20503;-88
2023/06/27 01:56:47;;;;;;;6.38;1.30;;;16.10;90.60;;;;;;5052617;28;20052;-88
2023/06/27 01:59:13;;;;;;;1.95;1.27;;;16.10;90.60;;;;;;5049229;28;20077;-88
2023/06/27 02:01:39;;;;;;;2.05;1.30;;;16.00;91.00;;;;;;5057701;28;20120;-88
2023/06/27 02:04:05;;;;;;;1.60;1.15;;;16.00;91.30;;;;;;5043417;28;20048;-87
2023/06/27 02:06:33;;;;;;;1.40;1.17;;;15.90;91.20;;;;;;5051684;28;20040;-89
2023/06/27 02:08:59;;;;;;;3.08;1.50;;;15.90;91.30;;;;;;5035365;28;20028;-88
2023/06/27 02:11:25;;;;;;;2.33;1.40;;;15.90;91.60;;;;;;5046951;28;20078;-88
2023/06/27 02:13:51;;;;;;;2.38;1.30;;;15.80;91.90;;;;;;5057510;28;20532;-90
2023/06/27 02:16:17;;;;;;;4.38;1.25;;;15.80;92.10;;;;;;5005869;28;20589;-88
2023/06/27 02:18:43;;;;;;;2.50;1.42;;;15.80;92.00;;;;;;5038663;28;20128;-88
2023/06/27 02:21:10;;;;;;;5.35;1.38;;;15.80;92.30;;;;;;5039909;28;20029;-88
2023/06/27 02:23:36;;;;;;;1.60;1.30;;;15.70;92.30;;;;;;5042170;28;20037;-87
2023/06/27 02:26:03;;;;;;;3.30;1.70;;;15.70;92.40;;;;;;5032977;28;20037;-88
2023/06/27 02:28:29;;;;;;;2.55;1.08;;;15.70;92.50;;;;;;5058439;28;20165;-88
2023/06/27 02:30:55;;;;;;;2.53;1.30;;;15.70;92.60;;;;;;5038580;28;20589;-88
2023/06/27 02:33:21;;;;;;;2.17;1.00;;;15.70;92.60;;;;;;5033931;28;20037;-88
2023/06/27 02:35:47;;;;;;;1.88;1.27;;;15.60;93.10;;;;;;5034231;28;20029;-88
2023/06/27 02:38:15;;;;;;;2.15;1.30;;;15.60;93.10;;;;;;5038588;28;20029;-89
2023/06/27 02:40:43;;;;;;;1.20;1.10;;;15.60;93.40;;;;;;5030940;28;20059;-89
2023/06/27 02:43:09;;;;;;;2.22;1.40;;;15.60;93.20;;;;;;5054260;28;20218;-88
2023/06/27 02:45:36;;;;;;;1.95;1.02;;;15.60;93.30;;;;;;5034861;28;20067;-90
2023/06/27 02:48:02;;;;;;;3.70;1.02;;;15.60;93.40;;;;;;5051423;28;20126;-90
2023/06/27 02:50:28;;;;;;;3.25;1.20;;;15.60;93.30;;;;;;5035280;28;20045;-90
2023/06/27 02:52:54;;;;;;;2.40;1.33;;;15.60;93.70;;;;;;5037403;28;20059;-90
2023/06/27 02:55:20;;;;;;;3.28;1.20;;;15.50;93.90;;;;;;5054889;28;20025;-88
2023/06/27 02:57:46;;;;;;;1.95;1.30;;;15.50;93.80;;;;;;5034959;28;20427;-88
2023/06/27 03:00:13;;;;;;;1.30;1.20;;;15.50;93.90;;;;;;5035729;28;20112;-88
2023/06/27 03:02:40;;;;;;;2.17;1.20;;;15.50;94.40;;;;;;5034880;28;20060;-88
2023/06/27 03:05:06;;;;;;;2.25;1.10;;;15.40;94.30;;;;;;5035231;28;20033;-88
2023/06/27 03:07:32;;;;;;;2.58;1.20;;;15.40;94.40;;;;;;5022124;28;20487;-88
2023/06/27 03:09:58;;;;;;;3.50;1.30;;;15.40;94.40;;;;;;5038800;28;20029;-88
2023/06/27 03:12:24;;;;;;;4.07;1.58;;;15.40;94.60;;;;;;5050762;28;20029;-88
2023/06/27 03:14:49;;;;;;;2.65;1.38;;;15.40;94.40;;;;;;5034619;28;20036;-89
2023/06/27 03:17:16;;;;;;;2.70;1.20;;;15.40;95.00;;;;;;5051292;28;20124;-88
2023/06/27 03:19:42;;;;;;;3.65;0.93;;;15.30;94.90;;;;;;5034805;28;20468;-89
2023/06/27 03:22:08;;;;;;;2.28;1.38;;;15.40;94.60;;;;;;5051528;28;20033;-89
2023/06/27 03:24:34;;;;;;;2.45;1.42;;;15.30;94.60;;;;;;5034372;28;20032;-88
2023/06/27 03:27:00;;;;;;;2.25;1.40;;;15.30;95.20;;;;;;5034253;28;20033;-88
2023/06/27 03:29:26;;;;;;;1.88;1.20;;;15.30;95.40;;;;;;5038958;28;20446;-88
2023/06/27 03:31:52;;;;;;;2.50;0.90;;;15.30;95.80;;;;;;5037307;28;20033;-88
2023/06/27 03:34:19;;;;;;;1.92;1.20;;;15.30;96.00;;;;;;5045348;28;20108;-89
2023/06/27 03:36:45;;;;;;;2.60;1.27;;;15.30;95.80;;;;;;5033395;28;20124;-88
2023/06/27 03:39:11;;;;;;;3.67;1.23;;;15.30;95.70;;;;;;5057944;28;20028;-89
2023/06/27 03:41:36;;;;;;;3.05;1.25;;;15.30;96.30;;;;;;5049220;28;20118;-89
2023/06/27 03:44:05;;;;;;;3.47;1.40;;;15.30;96.20;;;;;;5031501;28;20033;-89
2023/06/27 03:46:32;;;;;;;4.43;1.30;;;15.20;96.20;;;;;;5031709;28;20021;-87
2023/06/27 03:48:58;;;;;;;3.22;1.20;;;15.30;96.30;;;;;;5052658;28;20013;-90
2023/06/27 03:51:25;;;;;;;1.65;1.08;;;15.30;96.60;;;;;;5030518;28;20495;-87
2023/06/27 03:53:51;;;;;;;4.50;1.30;;;15.30;96.60;;;;;;5029574;28;20176;-87
2023/06/27 03:56:17;;;;;;;1.65;1.30;;;15.20;96.40;;;;;;5032512;28;20120;-87
2023/06/27 03:58:43;;;;;;;1.20;1.10;;;15.20;96.10;;;;;;5028532;28;20025;-87
2023/06/27 04:01:10;;;;;;;2.47;1.30;;;15.20;96.40;;;;;;5033276;28;20040;-88
2023/06/27 04:03:36;;;;;;;1.42;1.20;;;15.30;96.40;;;;;;5031855;28;20051;-87
2023/06/27 04:06:05;;;;;;;1.92;1.40;;;15.30;96.80;;;;;;5036508;28;20502;-88
2023/06/27 04:08:30;;;;;;;1.90;1.20;;;15.30;96.90;;;;;;5034209;28;20036;-88
2023/06/27 04:10:57;;;;;;;1.73;1.20;;;15.30;97.50;;;;;;5003616;28;20439;-88
2023/06/27 04:13:25;;;;;;;2.70;1.50;;;15.40;97.90;;;;;;5032046;28;20056;-89
2023/06/27 04:15:50;;;;;;;2.22;1.20;;;15.40;97.70;;;;;;5048984;28;20071;-88
2023/06/27 04:18:16;;;;;;;1.50;1.38;;;15.40;98.60;;;;;;5032955;28;20032;-89
2023/06/27 04:20:42;;;;;;;2.28;1.30;;;15.40;98.50;;;;;;5032759;28;20070;-88
2023/06/27 04:23:08;;;;;;;1.35;1.10;;;15.50;98.70;;;;;;5031746;28;20033;-88
2023/06/27 04:25:36;;;;;;;2.75;1.40;;;15.50;98.70;;;;;;5052248;28;20028;-88
2023/06/27 04:28:04;;;;;;;3.45;1.40;;;15.50;98.80;;;;;;5037740;28;20064;-88
2023/06/27 04:30:30;;;;;;;3.83;1.30;;;15.60;98.50;;;;;;5036322;28;20028;-88
2023/06/27 04:32:55;;;;;;;3.55;1.42;;;15.60;98.60;;;;;;5034575;28;20033;-88
2023/06/27 04:35:23;;;;;;;2.67;1.10;;;15.60;97.50;;;;;;5052068;28;20060;-88
2023/06/27 04:37:51;;;;;;;3.90;1.15;;;15.60;98.50;;;;;;5053184;28;20029;-89
2023/06/27 04:40:17;;;;;;;2.97;1.48;;;15.60;99.40;;;;;;5041169;28;20029;-88
2023/06/27 04:42:45;;;;;;;2.42;1.38;;;15.70;99.30;;;;;;5032398;28;20036;-88
2023/06/27 04:45:11;;;;;;;2.28;1.10;;;15.70;99.40;;;;;;5035945;28;20036;-90
2023/06/27 04:47:40;;;;;;;5.53;1.40;;;15.80;99.80;;;;;;5036880;28;20087;-88
2023/06/27 04:50:06;;;;;;;3.22;1.10;;;15.80;99.90;;;;;;5002362;28;20030;-90
2023/06/27 04:52:32;;;;;;;3.80;1.40;;;15.90;99.90;;;;;;5036071;28;20474;-90
2023/06/27 04:54:58;;;;;;;3.28;1.90;;;16.00;99.80;;;;;;5052240;28;20032;-89
2023/06/27 04:57:24;;;;;;;2.42;1.25;;;16.00;99.90;;;;;;5035514;28;20029;-89
2023/06/27 04:59:50;;;;;;;2.05;1.40;;;16.10;99.90;;;;;;5052580;28;20029;-88
2023/06/27 05:02:16;;;;;;;3.13;1.42;;;16.10;99.90;;;;;;5032152;28;20080;-88
2023/06/27 05:04:42;;;;;;;2.88;1.52;;;16.20;99.90;;;;;;5035254;28;20032;-88
2023/06/27 05:07:08;;;;;;;2.15;1.40;;;16.20;99.80;;;;;;5035974;28;20051;-90
2023/06/27 05:09:33;;;;;;;4.80;1.45;;;16.20;99.80;;;;;;5052651;28;20036;-89
2023/06/27 05:11:59;;;;;;;1.23;1.13;;;16.30;99.90;;;;;;5035761;28;20037;-89
2023/06/27 05:14:25;;;;;;;2.85;1.30;;;16.40;99.90;;;;;;5051969;28;20044;-88
2023/06/27 05:16:51;;;;;;;4.00;1.30;;;16.40;99.50;;;;;;5033691;28;20017;-89
2023/06/27 05:19:17;;;;;;;2.75;1.20;;;16.50;99.30;;;;;;5019985;28;20479;-88
2023/06/27 05:21:43;;;;;;;3.20;1.20;;;16.60;98.90;;;;;;5019301;28;20025;-89
2023/06/27 05:24:09;;;;;;;2.97;1.25;;;16.70;98.80;;;;;;5052065;28;20430;-88
2023/06/27 05:26:35;;;;;;;2.22;1.25;;;16.80;98.10;;;;;;5052192;28;20036;-89
2023/06/27 05:29:01;;;;;;;1.45;1.20;;;16.90;98.20;;;;;;5052957;28;20033;-89
2023/06/27 05:31:27;;;;;;;2.05;1.05;;;17.00;97.70;;;;;;5058765;28;20446;-91
2023/06/27 05:33:54;;;;;;;4.05;1.30;;;17.20;97.30;;;;;;5033361;28;20041;-89
2023/06/27 05:36:20;;;;;;;1.10;0.80;;;17.40;96.30;;;;;;5039097;28;20032;-89
2023/06/27 05:38:46;;;;;;;1.20;1.00;;;17.70;95.40;;;;;;5032544;28;20030;-89
2023/06/27 05:41:13;;;;;;;3.13;1.13;;;18.10;95.30;;;;;;5055027;28;20059;-89
2023/06/27 05:43:39;;;;;;;1.88;1.00;;;18.20;94.70;;;;;;5055448;28;20025;-91
2023/06/27 05:46:04;;;;;;;1.40;1.25;;;18.20;93.50;;;;;;5036073;28;20048;-89
2023/06/27 05:48:30;;;;;;;2.17;1.23;;;18.10;93.30;;;;;;5054422;28;20037;-88
2023/06/27 05:50:56;;;;;;;1.52;1.20;;;18.10;95.10;;;;;;5035428;28;20025;-88
2023/06/27 05:53:22;;;;;;;2.72;1.45;;;18.00;94.40;;;;;;5035470;28;20036;-90
2023/06/27 05:55:48;;;;;;;5.18;1.10;;;18.00;94.90;;;;;;5035280;28;20041;-91
2023/06/27 05:58:14;;;;;;;2.92;1.35;;;18.20;95.60;;;;;;5044038;28;20119;-88
2023/06/27 06:00:40;;;;;;;1.58;1.02;;;18.40;94.10;;;;;;5036606;28;20057;-88
2023/06/27 06:03:06;;;;;;;3.42;1.48;;;18.50;94.00;;;;;;5054499;28;20479;-89
2023/06/27 06:05:31;;;;;;;3.28;1.00;;;18.60;92.20;;;;;;5037410;28;20506;-89
2023/06/27 06:07:57;;;;;;;2.53;1.10;;;18.60;93.70;;;;;;5054905;28;20032;-91
2023/06/27 06:10:29;;;;;;;2.38;1.20;;;18.70;93.10;;;;;;5037478;28;20049;-89
2023/06/27 06:13:15;;;;;;;1.38;0.98;;;19.00;92.70;;;;;;5048411;28;20040;-91
2023/06/27 06:15:41;;;;;;;2.13;1.20;;;19.40;92.60;;;;;;5059309;28;20032;-88
2023/06/27 06:18:07;;;;;;;1.42;1.05;;;19.90;90.70;;;;;;5062523;28;20040;-88
2023/06/27 06:20:33;;;;;;;1.48;1.25;;;20.30;90.90;;;;;;5041749;28;20017;-87
2023/06/27 06:22:59;;;;;;;2.08;1.35;;;20.50;86.90;;;;;;5038750;28;20044;-89
2023/06/27 06:25:27;;;;;;;1.98;1.00;;;20.40;85.70;;;;;;5067278;28;20021;-88
2023/06/27 06:27:55;;;;;;;3.83;1.30;;;20.40;87.20;;;;;;5044927;28;20025;-91
2023/06/27 06:30:21;;;;;;;2.50;1.52;;;20.40;89.10;;;;;;5032156;28;20034;-88
2023/06/27 06:32:46;;;;;;;2.47;1.08;;;20.50;86.30;;;;;;5027047;28;20025;-89
2023/06/27 06:35:12;;;;;;;1.73;1.10;;;20.60;87.90;;;;;;5050815;28;20033;-89
2023/06/27 06:37:38;;;;;;;1.73;1.13;;;20.60;82.50;;;;;;5032625;28;20026;-89
2023/06/27 06:40:04;;;;;;;3.40;1.10;;;20.40;81.10;;;;;;5049264;28;20033;-88
2023/06/27 06:42:30;;;;;;;2.15;0.82;;;20.10;82.50;;;;;;5042951;28;20468;-89
2023/06/27 06:44:56;;;;;;;2.40;1.13;;;20.20;83.10;;;;;;5032025;28;20072;-89
2023/06/27 06:47:22;;;;;;;1.42;1.00;;;20.60;85.40;;;;;;5057543;28;20034;-88
2023/06/27 06:49:48;;;;;;;2.55;1.08;;;21.00;74.70;;;;;;5056682;28;20112;-89
2023/06/27 06:52:13;;;;;;;1.50;1.00;;;21.20;77.00;;;;;;5052352;28;20035;-89
2023/06/27 06:54:43;;;;;;;1.38;0.95;;;21.30;75.10;;;;;;5034597;28;20514;-89
2023/06/27 06:57:10;;;;;;;3.50;1.20;;;21.30;76.90;;;;;;5036409;28;20089;-90
2023/06/27 06:59:36;;;;;;;2.10;0.95;;;21.00;78.50;;;;;;5036060;28;20428;-89
2023/06/27 07:02:02;;;;;;;1.90;0.90;;;20.90;77.60;;;;;;5033141;28;20029;-89
2023/06/27 07:04:28;;;;;;;3.58;0.90;;;20.90;79.50;;;;;;5035767;28;20080;-88
2023/06/27 07:06:54;;;;;;;1.48;0.90;;;21.20;78.30;;;;;;5037085;28;20029;-89
2023/06/27 07:09:20;;;;;;;1.88;0.80;;;21.50;75.00;;;;;;5052989;28;20033;-89
2023/06/27 07:11:47;;;;;;;3.17;0.82;;;21.80;73.10;;;;;;5037369;28;20072;-90
2023/06/27 07:14:13;;;;;;;3.88;2.63;;;21.90;68.60;;;;;;5051362;28;20044;-89
2023/06/27 07:16:46;;;;;;;3.80;1.27;;;21.90;65.90;;;;;;5035312;28;20036;-89
2023/06/27 07:19:12;;;;;;;2.53;0.80;;;21.70;70.30;;;;;;5044202;28;20032;-88
2023/06/27 07:21:38;;;;;;;1.10;1.00;;;21.50;70.20;;;;;;5072147;28;20551;-88
2023/06/27 07:24:05;;;;;;;1.35;1.00;;;21.30;70.80;;;;;;5041138;28;20057;-88
2023/06/27 07:26:34;;;;;;;1.95;0.85;;;21.00;71.20;;;;;;5030076;28;20449;-90
2023/06/27 07:29:01;;;;;;;1.90;1.00;;;20.80;69.80;;;;;;5026652;28;20536;-90
2023/06/27 07:31:27;;;;;;;1.75;0.90;;;20.60;74.00;;;;;;5028426;28;20670;-89
2023/06/27 07:33:53;;;;;;;1.25;1.08;;;20.50;76.00;;;;;;5027997;28;20033;-89
2023/06/27 07:36:19;;;;;;;2.47;0.80;;;20.30;77.70;;;;;;5033942;28;20082;-89
2023/06/27 07:38:45;;;;;;;1.50;0.80;;;20.10;75.00;;;;;;5033254;28;20033;-89
2023/06/27 07:41:13;;;;;;;1.52;0.95;;;20.00;72.90;;;;;;5032920;28;20505;-89
2023/06/27 07:43:39;;;;;;;2.55;0.90;;;20.00;76.80;;;;;;5032716;28;20033;-90
2023/06/27 07:46:05;;;;;;;2.08;0.95;;;20.30;77.00;;;;;;5029101;28;20032;-89
2023/06/27 07:48:31;;;;;;;1.15;0.70;;;20.40;74.60;;;;;;5046711;28;20056;-89
2023/06/27 07:50:56;;;;;;;1.20;0.90;;;20.50;74.50;;;;;;5033295;28;20031;-89
2023/06/27 07:53:22;;;;;;;0.63;0.60;;;20.50;74.40;;;;;;5031862;28;20120;-88
2023/06/27 07:55:48;;;;;;;3.05;0.95;;;20.60;75.10;;;;;;5047809;28;20032;-90
2023/06/27 07:58:14;;;;;;;1.83;1.27;;;20.70;72.60;;;;;;5048339;28;20809;-90
2023/06/27 08:00:42;;;;;;;3.28;1.05;;;20.80;74.30;;;;;;5047975;28;20128;-90
2023/06/27 08:03:13;;;;;;;3.22;0.98;;;20.80;75.50;;;;;;5039100;28;20032;-90
2023/06/27 08:05:39;;;;;;;1.48;0.70;;;20.90;71.40;;;;;;5048581;28;20094;-88
2023/06/27 08:08:05;;;;;;;3.08;1.00;;;21.00;73.00;;;;;;5031491;28;20052;-88
2023/06/27 08:10:31;;;;;;;1.67;0.80;;;21.10;71.20;;;;;;5031546;28;20029;-90
2023/06/27 08:12:57;;;;;;;1.00;0.57;;;21.20;68.30;;;;;;5048250;28;20025;-89
2023/06/27 08:15:22;;;;;;;2.75;0.85;;;21.40;71.00;;;;;;5028440;28;20037;-89
2023/06/27 08:17:48;;;;;;;3.40;1.08;;;21.50;71.10;;;;;;5053903;28;20060;-89
2023/06/27 08:20:14;;;;;;;1.95;0.90;;;21.90;69.60;;;;;;5031258;28;20033;-89
2023/06/27 08:22:40;;;;;;;2.10;0.80;;;22.50;66.70;;;;;;5031181;28;20513;-90
2023/06/27 08:25:06;;;;;;;1.73;0.70;;;23.10;67.00;;;;;;5033618;28;20120;-89
2023/06/27 08:27:34;;;;;;;1.65;0.80;;;23.70;61.10;;;;;;5029786;28;20048;-89
2023/06/27 08:30:00;;;;;;;2.50;0.77;;;24.50;60.60;;;;;;5027351;28;20048;-90
2023/06/27 08:32:26;;;;;;;2.13;1.00;;;25.30;58.00;;;;;;5060344;28;20029;-89
2023/06/27 08:34:54;;;;;;;2.28;0.70;;;25.60;54.50;;;;;;5031556;28;20028;-90
2023/06/27 08:37:21;;;;;;;1.15;0.70;;;25.80;56.80;;;;;;5030178;28;20038;-90
2023/06/27 08:39:51;;;;;;;1.63;0.75;;;25.80;51.10;;;;;;5027686;28;20029;-89
2023/06/27 08:42:18;;;;;;;1.88;0.90;;;25.50;56.70;;;;;;5031171;28;20033;-88
2023/06/27 08:44:44;;;;;;;4.10;0.68;;;25.50;55.80;;;;;;5033209;28;20441;-88
2023/06/27 08:47:12;;;;;;;5.53;0.80;;;25.40;56.90;;;;;;5046591;28;20033;-90
2023/06/27 08:49:43;;;;;;;1.02;0.70;;;25.50;57.80;;;;;;5034901;28;20060;-88
2023/06/27 08:52:13;;;;;;;1.45;0.50;;;25.50;56.40;;;;;;5029278;28;20064;-88
2023/06/27 08:54:49;;;;;;;3.47;0.88;;;25.50;52.90;;;;;;5051236;28;20028;-90
2023/06/27 08:57:16;;;;;;;2.20;0.80;;;25.30;53.20;;;;;;5039943;28;20229;-92
2023/06/27 08:59:45;;;;;;;3.47;0.75;;;24.80;52.20;;;;;;5028301;28;20160;-91
2023/06/27 09:02:15;;;;;;;3.25;1.00;;;24.60;55.00;;;;;;5049643;28;20090;-89
2023/06/27 09:04:42;;;;;;;4.43;0.90;;;24.40;57.50;;;;;;5034779;28;20067;-90
2023/06/27 09:07:08;;;;;;;3.70;1.35;;;24.10;57.90;;;;;;5030998;28;20040;-89
2023/06/27 09:09:35;;;;;;;8.05;1.15;;;23.90;55.80;;;;;;5014298;28;20579;-89
2023/06/27 09:12:02;;;;;;;2.50;0.80;;;23.80;55.20;;;;;;5045303;28;20430;-89
2023/06/27 09:14:29;;;;;;;1.98;0.77;;;23.70;56.60;;;;;;5057722;28;20646;-89
2023/06/27 09:16:56;;;;;;;3.33;1.35;;;23.60;60.00;;;;;;5055990;28;20100;-91
2023/06/27 09:19:22;;;;;;;4.45;0.90;;;23.60;56.60;;;;;;5068258;28;20039;-89
2023/06/27 09:21:50;;;;;;;3.30;1.00;;;23.50;56.50;;;;;;5040213;28;20044;-88
2023/06/27 09:24:25;;;;;;;1.92;0.80;;;23.40;56.70;;;;;;5037529;28;20040;-89
2023/06/27 09:26:51;;;;;;;2.17;0.60;;;23.20;56.60;;;;;;5050914;28;20627;-90
2023/06/27 09:29:17;;;;;;;1.33;0.70;;;22.90;62.30;;;;;;5037705;28;20021;-90
2023/06/27 09:31:43;;;;;;;1.17;0.65;;;22.80;60.00;;;;;;5052737;28;20063;-89
2023/06/27 09:34:09;;;;;;;1.95;0.70;;;22.80;59.80;;;;;;5036145;28;20057;-89
2023/06/27 09:36:39;;;;;;;1.35;0.57;;;22.70;61.90;;;;;;5042154;28;20175;-89
2023/06/27 09:39:10;;;;;;;1.17;0.73;;;22.70;62.90;;;;;;5053669;28;20039;-86
2023/06/27 09:41:44;;;;;;;3.13;0.75;;;22.70;63.30;;;;;;5036989;28;20029;-89
2023/06/27 09:44:18;;;;;;;3.20;0.80;;;22.70;61.20;;;;;;5036752;28;20055;-89
2023/06/27 09:46:45;;;;;;;2.50;0.80;;;22.60;61.00;;;;;;5037655;28;20039;-89
2023/06/27 09:49:12;;;;;;;2.97;1.00;;;22.50;60.80;;;;;;5037142;28;20029;-89
2023/06/27 09:51:38;;;;;;;2.05;0.70;;;22.40;63.90;;;;;;5033479;28;20087;-89
2023/06/27 09:54:04;;;;;;;1.67;0.75;;;22.40;62.10;;;;;;5043837;28;20599;-89
2023/06/27 09:56:31;;;;;;;1.52;0.90;;;22.40;58.40;;;;;;5037451;28;20025;-87
2023/06/27 09:59:09;;;;;;;2.05;0.90;;;22.40;65.50;;;;;;5034314;28;20471;-89
2023/06/27 10:01:39;;;;;;;1.65;0.93;;;22.40;64.30;;;;;;5048061;28;20028;-89
2023/06/27 10:04:07;;;;;;;5.82;1.52;;;22.50;61.90;;;;;;5031458;28;20458;-88
2023/06/27 10:06:34;;;;;;;2.10;0.80;;;22.60;63.70;;;;;;5037617;28;20032;-88
2023/06/27 10:09:00;;;;;;;2.53;0.82;;;22.70;62.70;;;;;;5036383;28;20040;-88
2023/06/27 10:11:27;;;;;;;2.97;0.90;;;22.80;57.90;;;;;;5036612;28;20032;-89
2023/06/27 10:13:54;;;;;;;3.58;0.80;;;22.80;59.90;;;;;;5043964;28;20036;-87
2023/06/27 10:16:20;;;;;;;1.63;0.80;;;22.80;63.40;;;;;;5042982;28;20033;-89
2023/06/27 10:18:47;;;;;;;3.72;1.02;;;22.90;64.80;;;;;;5028060;28;20056;-88
2023/06/27 10:21:14;;;;;;;2.40;0.75;;;22.80;61.90;;;;;;5048634;28;20112;-88
2023/06/27 10:23:49;;;;;;;2.10;1.00;;;22.90;61.80;;;;;;5029306;28;20097;-89
2023/06/27 10:26:19;;;;;;;2.77;1.20;;;22.90;61.80;;;;;;5043653;28;20051;-89
2023/06/27 10:28:51;;;;;;;2.97;0.85;;;22.90;63.50;;;;;;5050011;28;20358;-89
2023/06/27 10:31:36;;;;;;;1.80;1.00;;;22.90;60.30;;;;;;5031578;28;20021;-86
2023/06/27 10:34:02;;;;;;;1.87;0.90;;;23.00;61.40;;;;;;5043224;28;20068;-88
2023/06/27 10:36:53;;;;;;;3.47;0.98;;;22.90;58.50;;;;;;5030833;28;20033;-89
2023/06/27 10:39:31;;;;;;;3.15;1.10;;;22.70;59.10;;;;;;5059897;28;20025;-90
2023/06/27 10:42:04;;;;;;;2.20;1.00;;;22.70;61.60;;;;;;5029879;28;20542;-89
2023/06/27 10:44:31;;;;;;;4.22;0.90;;;22.50;60.80;;;;;;5029202;28;20126;-88
2023/06/27 10:47:15;;;;;;;2.20;1.17;;;22.50;61.40;;;;;;5046846;28;20044;-90
2023/06/27 10:49:46;;;;;;;3.92;0.98;;;22.40;66.10;;;;;;5046073;28;20029;-87
2023/06/27 10:52:20;;;;;;;2.15;0.82;;;22.40;62.10;;;;;;5030803;28;20025;-89
2023/06/27 10:54:48;;;;;;;3.58;0.80;;;22.40;66.80;;;;;;5030397;28;20128;-89
2023/06/27 10:57:16;;;;;;;2.67;1.10;;;22.50;62.70;;;;;;5062587;28;20041;-90
2023/06/27 10:59:45;;;;;;;1.52;0.85;;;22.60;66.70;;;;;;5031797;28;20024;-87
2023/06/27 11:02:12;;;;;;;3.05;1.13;;;22.80;65.80;;;;;;5014466;28;20487;-88
2023/06/27 11:04:43;;;;;;;2.97;0.90;;;23.00;65.30;;;;;;5028367;28;20029;-90
2023/06/27 11:07:17;;;;;;;1.75;0.80;;;23.10;62.90;;;;;;5049181;28;20029;-89
2023/06/27 11:09:51;;;;;;;3.00;1.27;;;23.20;61.70;;;;;;5030349;28;20025;-87
2023/06/27 11:12:17;;;;;;;2.15;1.00;;;23.20;58.90;;;;;;5043380;28;20730;-88
2023/06/27 11:14:45;;;;;;;1.60;1.17;;;23.10;59.20;;;;;;5032526;28;20041;-87
2023/06/27 11:17:12;;;;;;;2.30;0.70;;;23.10;61.60;;;;;;5037771;28;20040;-88
2023/06/27 11:19:39;;;;;;;1.65;0.82;;;23.10;65.30;;;;;;5030833;28;20017;-88
2023/06/27 11:22:06;;;;;;;2.60;0.85;;;23.10;61.20;;;;;;5028527;28;20776;-88
2023/06/27 11:24:32;;;;;;;3.50;0.90;;;23.30;60.90;;;;;;5028541;28;20036;-89
2023/06/27 11:27:00;;;;;;;1.75;0.98;;;23.30;57.70;;;;;;5031843;28;20032;-89
2023/06/27 11:29:27;;;;;;;0.70;0.70;;;23.40;59.10;;;;;;5029093;28;20025;-88
2023/06/27 11:31:55;;;;;;;1.10;0.77;;;23.40;61.20;;;;;;5045738;28;20021;-89
2023/06/27 11:34:21;;;;;;;1.50;0.70;;;23.50;60.00;;;;;;5028929;28;20036;-90
2023/06/27 11:36:48;;;;;;;1.95;1.10;;;23.50;62.20;;;;;;5049390;28;20127;-87
2023/06/27 11:39:15;;;;;;;7.82;1.35;;;23.60;61.50;;;;;;5034226;28;20029;-86
2023/06/27 11:41:43;;;;;;;2.25;0.90;;;23.60;59.40;;;;;;5032522;28;20029;-90
2023/06/27 11:44:10;;;;;;;1.23;0.88;;;23.50;59.70;;;;;;5040174;28;20032;-89
2023/06/27 11:46:47;;;;;;;2.38;0.80;;;23.40;58.50;;;;;;5032565;28;20037;-88
2023/06/27 11:49:13;;;;;;;1.77;0.80;;;23.30;59.20;;;;;;5027306;28;20086;-89
2023/06/27 11:51:39;;;;;;;3.33;1.15;;;23.10;61.00;;;;;;5048927;28;20025;-89
2023/06/27 11:54:07;;;;;;;1.70;0.95;;;23.00;62.20;;;;;;5028706;28;20120;-89
2023/06/27 11:56:36;;;;;;;2.63;1.00;;;22.90;63.10;;;;;;5030665;28;20029;-91
2023/06/27 11:59:02;;;;;;;0.77;0.75;;;22.80;62.40;;;;;;5035521;28;20192;-89
2023/06/27 12:01:31;;;;;;;1.55;0.80;;;22.70;63.90;;;;;;5028980;28;20040;-90
2023/06/27 12:03:57;;;;;;;1.15;0.85;;;22.70;62.30;;;;;;5036719;28;20395;-89
2023/06/27 12:06:28;;;;;;;1.17;0.90;;;22.70;65.10;;;;;;5028555;28;20037;-88
2023/06/27 12:08:54;;;;;;;3.03;1.25;;;22.70;59.00;;;;;;5051191;28;20110;-89
2023/06/27 12:11:34;;;;;;;2.78;0.90;;;22.60;60.90;;;;;;5029253;28;20056;-89
2023/06/27 12:14:01;;;;;;;1.27;0.80;;;22.60;64.30;;;;;;5047010;28;20081;-88
2023/06/27 12:16:32;;;;;;;1.65;0.98;;;22.70;65.90;;;;;;5028687;28;20030;-89
2023/06/27 12:19:03;;;;;;;1.67;0.77;;;22.80;65.60;;;;;;5032307;28;20029;-90
2023/06/27 12:21:29;;;;;;;1.08;0.70;;;23.00;66.80;;;;;;5051352;28;20071;-89
2023/06/27 12:23:55;;;;;;;1.10;0.60;;;23.20;64.90;;;;;;5032584;28;20029;-90
2023/06/27 12:26:21;;;;;;;2.22;0.80;;;23.30;63.10;;;;;;5028270;28;20099;-90
2023/06/27 12:29:04;;;;;;;1.33;1.02;;;23.40;60.80;;;;;;5034240;28;20040;-89
2023/06/27 12:31:31;;;;;;;1.98;1.10;;;23.50;64.70;;;;;;5051914;28;20403;-89
2023/06/27 12:33:59;;;;;;;2.15;0.88;;;23.70;59.00;;;;;;5030855;28;20106;-88
2023/06/27 12:36:26;;;;;;;2.97;1.40;;;23.80;60.80;;;;;;5035618;28;20033;-88
2023/06/27 12:38:53;;;;;;;1.92;0.90;;;23.60;55.80;;;;;;5039160;28;21004;-90
2023/06/27 12:41:24;;;;;;;1.35;1.00;;;23.70;58.10;;;;;;5036469;28;20110;-89
2023/06/27 12:43:50;;;;;;;3.25;0.90;;;23.80;63.00;;;;;;5033757;28;20483;-90
2023/06/27 12:46:16;;;;;;;2.25;1.15;;;23.80;58.40;;;;;;5047155;28;20112;-89
2023/06/27 12:48:45;;;;;;;1.33;0.80;;;23.80;59.60;;;;;;5034707;28;20071;-88